Latest Weather Observations for Cooma Airport

IDN60901

Issued at 8:31 am EST Sunday 31 July 2016 (issued every 10 minutes, with the page automatically refreshed every 10 minutes)

About weather observations | Map of Canberra area stations | Latest observations for Canberra area | Other Formats
Station Details ID: 070217 Name: COOMA AIRPORT AWS Lat: -36.29 Lon: 148.97 Height: 930.0 m
Data from the previous 72 hours. | See also: Recent months at Cooma Airport
Date/Time
EST
Temp
°C
App
Temp
°C
Dew
Point
°C
Rel
Hum
%
Delta-T
°C
Wind Press
QNH
hPa
Press
MSL
hPa
Rain since
9am
mm
Dir  Spd
km/h
Gust
km/h
Spd
kts
Gust
kts
31/08:00am 7.1 3.7 1.6 68 2.4 WSW 9 15 5 8 1015.5 1017.0 0.0
31/07:30am 6.3 2.4 1.4 71 2.1 WNW 11 19 6 10 1015.2 1016.8 0.0
31/07:00am 5.8 1.5 1.2 72 1.9 WNW 13 22 7 12 1015.3 1016.9 0.0
31/06:30am 6.5 1.1 1.0 68 2.3 WNW 19 32 10 17 1015.2 1016.8 0.0
31/06:00am 7.4 3.0 0.6 62 2.9 WNW 13 22 7 12 1014.8 1016.3 0.0
31/05:30am 7.6 2.4 -0.1 58 3.2 NW 17 24 9 13 1014.1 1015.7 0.0
31/05:00am 6.5 2.5 0.4 65 2.5 N 11 15 6 8 1014.6 1016.1 0.0
31/04:30am 7.1 1.0 0.3 62 2.8 NNW 22 30 12 16 1014.4 1015.9 0.0
31/04:00am 7.5 1.4 0.5 61 2.9 NW 22 33 12 18 1014.6 1016.1 0.0
31/03:30am 7.3 2.5 0.5 62 2.9 N 15 22 8 12 1014.9 1016.5 0.0
31/03:00am 7.3 2.1 0.1 60 3.0 NNW 17 22 9 12 1015.0 1016.6 0.0
31/02:30am 7.4 2.2 -0.1 59 3.1 NNW 17 28 9 15 1015.6 1017.1 0.0
31/02:00am 7.5 1.9 0.0 59 3.1 NNW 19 28 10 15 1015.7 1017.2 0.0
31/01:30am 8.3 1.6 -1.0 52 3.8 NNW 24 33 13 18 1015.9 1017.5 0.0
31/01:00am 8.0 3.0 -1.0 53 3.7 NNW 15 20 8 11 1016.3 1017.9 0.0
31/12:30am 8.2 4.3 -1.3 51 3.9 NNW 9 20 5 11 1016.5 1018.1 0.0
31/12:00am 7.2 3.8 -0.7 57 3.2 NW 7 13 4 7 1016.8 1018.4 0.0
 
Date/Time
EST
Temp
°C
App
Temp
°C
Dew
Point
°C
Rel
Hum
%
Delta-T
°C
Wind Press
QNH
hPa
Press
MSL
hPa
Rain since
9am
mm
Dir  Spd
km/h
Gust
km/h
Spd
kts
Gust
kts
30/11:30pm 6.4 2.7 0.1 64 2.6 E 9 13 5 7 1016.8 1018.4 0.0
30/11:00pm 5.2 0.8 0.4 71 2.0 NNE 13 19 7 10 1016.5 1018.1 0.0
30/10:30pm 6.9 1.7 0.1 62 2.8 N 17 20 9 11 1016.9 1018.5 0.0
30/10:00pm 6.3 1.1 0.4 66 2.4 NW 17 24 9 13 1017.3 1018.9 0.0
30/09:30pm 5.8 1.5 1.2 72 1.9 N 13 22 7 12 1017.4 1019.0 0.0
30/09:00pm 5.8 1.1 1.2 72 1.9 NE 15 20 8 11 1017.6 1019.3 0.0
30/08:30pm 4.3 0.0 1.2 80 1.3 NNE 13 17 7 9 1017.6 1019.3 0.0
30/08:00pm 3.7 0.5 0.8 81 1.2 N 7 11 4 6 1017.8 1019.4 0.0
30/07:30pm 3.5 -0.6 0.0 78 1.4 ENE 11 15 6 8 1017.9 1019.5 0.0
30/07:00pm 4.7 0.7 0.5 74 1.7 NE 11 17 6 9 1017.6 1019.3 0.0
30/06:30pm 6.2 3.0 0.5 67 2.4 NNE 7 13 4 7 1017.8 1019.4 0.0
30/06:00pm 6.6 2.2 0.5 65 2.5 NNE 13 26 7 14 1017.3 1018.9 0.0
30/05:30pm 7.4 1.7 0.8 63 2.8 NW 20 30 11 16 1017.2 1018.8 0.0
30/05:00pm 8.0 1.6 0.7 60 3.1 NNW 24 30 13 16 1017.1 1018.7 0.0
30/04:30pm 9.4 4.3 0.8 55 3.7 NNW 17 22 9 12 1017.3 1018.9 0.0
30/04:00pm 11.0 5.8 -0.2 46 4.8 NNW 17 24 9 13 1017.5 1019.1 0.0
30/03:30pm 11.9 6.3 -0.3 43 5.3 NW 19 22 10 12 1017.4 1019.0 0.0
30/03:00pm 12.3 7.7 -1.2 39 5.7 NW 13 19 7 10 1017.9 1019.5 0.0
30/02:30pm 12.3 6.7 -3.1 34 6.3 NW 17 24 9 13 1017.8 1019.4 0.0
30/02:00pm 12.4 7.1 -0.8 40 5.6 NNE 17 28 9 15 1018.1 1019.7 0.0
30/01:30pm 10.8 4.8 0.8 50 4.4 NNE 22 32 12 17 1018.3 1019.9 0.0
30/01:00pm 10.5 4.5 1.3 53 4.0 NNE 22 26 12 14 1018.7 1020.4 0.0
30/12:30pm 9.8 5.2 1.7 57 3.6 NNE 15 20 8 11 1019.7 1021.4 0.0
30/12:00pm 8.5 3.8 0.7 58 3.3 NE 15 20 8 11 1020.6 1022.3 0.0
30/11:30am 7.9 3.5 0.4 59 3.2 NNE 13 20 7 11 1021.1 1022.8 0.0
30/11:00am 7.6 3.7 1.2 64 2.7 ENE 11 17 6 9 1021.7 1023.4 0.0
30/10:30am 7.0 3.4 0.5 63 2.7 NE 9 15 5 8 1022.2 1024.0 0.0
30/10:00am 6.2 1.9 0.9 69 2.2 NE 13 15 7 8 1022.3 1024.1 0.0
30/09:30am 4.5 0.3 1.7 82 1.2 NE 13 15 7 8 1022.7 1024.4 0.0
30/09:00am 2.8 -1.1 1.0 88 0.7 NE 11 13 6 7 1022.7 1024.4 0.0
30/08:30am 0.8 -2.5 -0.1 94 0.3 NNE 7 11 4 6 1022.6 1024.3 0.0
30/08:00am -1.4 -3.6 -1.5 99 0.0 CALM 0 0 0 0 1022.3 1024.1 0.0
30/07:30am -4.4 -7.4 -5.2 94 0.1 NE 2 7 1 4 1022.0 1023.7 0.0
30/07:00am -5.2 -8.3 -6.0 94 0.0 NNE 2 6 1 3 1021.8 1023.5 0.0
30/06:30am -3.8 -6.3 -4.1 98 -0.1 CALM 0 0 0 0 1021.4 1023.1 0.0
30/06:00am -4.0 -7.9 -4.5 96 0.0 NE 7 9 4 5 1021.4 1023.1 0.0
30/05:30am -3.8 -6.3 -4.2 97 0.0 CALM 0 0 0 0 1021.1 1022.8 0.0
30/05:00am -4.0 -6.6 -4.7 95 0.1 CALM 0 0 0 0 1021.0 1022.7 0.0
30/04:30am -3.7 -6.3 -5.4 88 0.4 CALM 0 0 0 0 1020.8 1022.5 0.0
30/04:00am -1.8 -4.9 -2.6 94 0.2 NNE 4 9 2 5 1020.7 1022.4 0.0
30/03:30am -1.5 -5.2 -2.5 93 0.3 NNE 7 9 4 5 1020.6 1022.3 0.0
30/03:00am -2.4 -6.6 -4.0 89 0.4 NE 9 13 5 7 1020.5 1022.2 0.0
30/02:30am -1.6 -5.1 -2.9 91 0.4 ENE 6 9 3 5 1020.5 1022.2 0.0
30/02:00am -1.0 -4.5 -3.0 86 0.7 NNE 6 7 3 4 1020.9 1022.6 0.0
30/01:30am -0.3 -3.9 -2.2 87 0.7 NE 7 11 4 6 1020.8 1022.5 0.0
30/01:00am 1.4 -2.5 -1.2 83 1.0 W 9 15 5 8 1020.8 1022.5 0.0
30/12:30am 1.4 -1.7 -0.1 90 0.6 SE 6 9 3 5 1020.7 1022.4 0.0
30/12:00am 0.0 -2.1 -1.1 92 0.4 CALM 0 0 0 0 1020.7 1022.4 0.0
 
Date/Time
EST
Temp
°C
App
Temp
°C
Dew
Point
°C
Rel
Hum
%
Delta-T
°C
Wind Press
QNH
hPa
Press
MSL
hPa
Rain since
9am
mm
Dir  Spd
km/h
Gust
km/h
Spd
kts
Gust
kts
29/11:30pm -0.9 -4.6 -2.9 86 0.7 ESE 7 9 4 5 1021.0 1022.7 0.0
29/11:00pm 0.3 -2.3 -1.4 88 0.6 W 2 7 1 4 1020.9 1022.6 0.0
29/10:30pm -0.9 -4.6 -3.1 85 0.7 ENE 7 9 4 5 1020.9 1022.6 0.0
29/10:00pm 1.5 -2.4 -1.4 81 1.1 WSW 9 11 5 6 1020.8 1022.5 0.0
29/09:30pm 1.8 -1.8 -2.0 76 1.4 SSW 7 13 4 7 1020.5 1022.2 0.0
29/09:00pm 3.2 -0.2 -0.3 78 1.4 NE 7 11 4 6 1020.4 1022.1 0.0
29/08:30pm 3.5 -1.0 -0.5 75 1.6 WSW 13 15 7 8 1020.0 1021.7 0.0
29/08:00pm 3.4 -1.3 -1.5 70 1.9 SW 13 22 7 12 1019.9 1021.6 0.0
29/07:30pm 5.8 0.1 -0.5 64 2.5 W 19 24 10 13 1019.7 1021.4 0.0
29/07:00pm 6.1 0.4 -0.4 63 2.6 WNW 19 26 10 14 1019.2 1020.8 0.0
29/06:30pm 5.8 0.5 -0.3 65 2.5 WNW 17 24 9 13 1018.8 1020.5 0.0
29/06:00pm 6.5 2.0 -0.2 62 2.7 WNW 13 20 7 11 1018.5 1020.2 0.0
29/05:30pm 7.4 3.7 -0.3 58 3.2 NNW 9 15 5 8 1018.3 1019.9 0.0
29/05:00pm 8.0 3.2 0.0 57 3.3 W 15 24 8 13 1017.9 1019.5 0.0
29/04:30pm 8.5 2.3 0.0 55 3.6 W 22 30 12 16 1017.9 1019.5 0.0
29/04:00pm 9.1 4.4 1.0 57 3.5 W 15 24 8 13 1018.0 1019.6 0.0
29/03:30pm 9.4 5.8 0.8 55 3.7 NW 9 17 5 9 1017.8 1019.4 0.0
29/03:00pm 10.0 6.9 1.6 56 3.7 NW 7 17 4 9 1017.8 1019.4 0.0
29/02:30pm 10.4 6.5 1.0 52 4.1 W 11 17 6 9 1017.4 1019.0 0.0
29/02:00pm 9.9 5.3 1.3 55 3.8 NW 15 24 8 13 1017.6 1019.3 0.0
29/01:30pm 9.9 5.3 1.3 55 3.8 NW 15 24 8 13 1017.9 1019.5 0.0
29/01:00pm 9.9 5.3 1.5 56 3.7 WNW 15 22 8 12 1018.2 1019.8 0.0
29/12:30pm 9.3 2.9 1.2 57 3.5 NW 24 35 13 19 1018.6 1020.3 0.0
29/12:00pm 9.0 2.3 1.2 58 3.4 NW 26 39 14 21 1019.3 1020.9 0.0
29/11:30am 8.7 3.9 0.2 55 3.6 NNW 15 22 8 12 1019.8 1021.5 0.0
29/11:00am 6.2 2.4 1.5 72 2.0 NNE 11 17 6 9 1020.4 1022.1 0.0
29/10:30am 3.7 0.4 0.4 79 1.3 NE 7 11 4 6 1021.1 1022.8 0.0
29/10:00am 2.7 0.3 -0.1 82 1.1 NNE 2 9 1 5 1021.4 1023.1 0.0
29/09:30am 1.7 -2.4 -0.1 88 0.7 NE 11 17 6 9 1021.4 1023.1 0.0
29/09:00am 1.3 -3.7 -1.1 84 0.9 NNE 15 19 8 10 1020.8 1022.5 0.0
29/08:30am -0.1 -5.1 -1.4 91 0.5 NE 15 19 8 10 1020.8 1022.5 0.0
29/08:00am -1.1 -5.7 -1.4 98 0.1 NE 13 15 7 8 1020.8 1022.5 0.0
29/07:30am -2.6 -7.4 -2.7 99 -0.1 N 13 13 7 7 1020.7 1022.4 0.0
29/07:00am -4.3 -9.3 -4.4 99 -0.1 NNE 13 13 7 7 1020.7 1022.4 0.0
29/06:30am -4.8 -9.9 -5.5 95 0.0 NE 13 15 7 8 1020.5 1022.2 0.0
29/06:00am -4.0 -9.8 -4.5 96 0.0 NNE 17 17 9 9 1020.2 1021.8 0.0
29/05:30am -4.3 -9.0 -5.5 91 0.2 NNE 11 13 6 7 1020.3 1021.9 0.0
29/05:00am -2.8 -7.7 -3.6 94 0.1 N 13 15 7 8 1020.2 1021.8 0.0
29/04:30am -3.7 -9.2 -5.1 90 0.3 NNE 15 17 8 9 1019.9 1021.6 0.0
29/04:00am -1.1 -7.3 -2.8 88 0.5 NE 20 24 11 13 1019.5 1021.2 0.0
29/03:30am -2.6 -8.6 -3.3 95 0.1 NE 19 20 10 11 1019.8 1021.5 0.0
29/03:00am -2.4 -7.7 -3.5 92 0.3 NE 15 19 8 10 1020.0 1021.7 0.0
29/02:30am -1.4 -7.5 -2.4 93 0.3 NE 20 22 11 12 1020.3 1021.9 0.0
29/02:00am -3.2 -8.6 -4.2 93 0.2 NE 15 17 8 9 1020.5 1022.2 0.0
29/01:30am -2.5 -7.1 -4.2 88 0.5 NNE 11 15 6 8 1020.8 1022.5 0.0
29/01:00am 0.0 -4.9 -3.4 78 1.2 NE 13 17 7 9 1020.7 1022.4 0.0
29/12:30am 1.6 -2.4 -2.3 75 1.4 NE 9 15 5 8 1021.0 1022.7 0.0
29/12:00am 1.9 -2.8 -2.1 75 1.5 N 13 22 7 12 1021.0 1022.7 0.0
 
Date/Time
EST
Temp
°C
App
Temp
°C
Dew
Point
°C
Rel
Hum
%
Delta-T
°C
Wind Press
QNH
hPa
Press
MSL
hPa
Rain since
9am
mm
Dir  Spd
km/h
Gust
km/h
Spd
kts
Gust
kts
28/11:30pm 1.8 -3.7 -2.0 76 1.4 N 17 20 9 11 1020.9 1022.6 0.0
28/11:00pm 1.7 -3.1 -2.2 75 1.4 N 13 19 7 10 1021.3 1023.0 0.0
28/10:30pm 1.0 -3.5 -2.9 75 1.5 NE 11 13 6 7 1021.3 1023.0 0.0
28/10:00pm 1.6 -2.1 -2.5 74 1.5 NE 7 9 4 5 1021.6 1023.3 0.0
28/09:30pm 1.5 -2.2 -2.6 74 1.5 NNW 7 15 4 8 1021.8 1023.5 0.0
28/09:00pm 1.0 -2.8 -3.5 72 1.6 SE 7 11 4 6 1021.9 1023.6 0.0
28/08:30pm 4.2 -1.9 -2.0 64 2.4 WNW 20 30 11 16 1021.8 1023.5 0.0
28/08:00pm 4.5 -1.4 -2.1 62 2.5 NW 19 30 10 16 1021.9 1023.6 0.0
28/07:30pm 4.1 -1.9 -1.9 65 2.3 NW 20 26 11 14 1021.6 1023.3 0.0
28/07:00pm 4.2 -1.3 -1.8 65 2.3 NW 17 30 9 16 1021.6 1023.3 0.0
28/06:30pm 4.7 -1.7 -1.7 63 2.5 NW 22 33 12 18 1021.4 1023.1 0.0
28/06:00pm 5.0 -1.0 -1.7 62 2.6 NW 20 28 11 15 1021.0 1022.7 0.0
28/05:30pm 5.8 -0.2 -1.8 58 3.0 WNW 20 28 11 15 1020.8 1022.5 0.0
28/05:00pm 7.1 -0.1 -1.8 53 3.5 WNW 26 39 14 21 1020.6 1022.3 0.0
28/04:30pm 8.2 1.4 -1.6 50 3.9 WNW 24 33 13 18 1020.4 1022.1 0.0
28/04:00pm 9.1 2.4 -1.3 48 4.2 WNW 24 32 13 17 1020.5 1022.2 0.0
28/03:30pm 9.6 2.5 -1.1 47 4.4 WNW 26 37 14 20 1020.4 1022.1 0.0
28/03:00pm 10.0 2.5 -1.1 46 4.6 W 28 41 15 22 1020.2 1021.8 0.0
28/02:30pm 10.3 3.6 -1.4 44 4.8 WNW 24 35 13 19 1020.2 1021.8 0.0
28/02:00pm 9.9 2.8 -1.2 46 4.6 WNW 26 37 14 20 1020.3 1021.9 0.0
28/01:30pm 10.6 4.4 -0.2 47 4.6 WNW 22 35 12 19 1020.4 1022.1 0.0
28/01:00pm 10.3 3.7 -0.5 47 4.5 WNW 24 33 13 18 1020.7 1022.4 0.0
28/12:30pm 10.1 3.1 -0.7 47 4.5 WNW 26 37 14 20 1020.7 1022.4 0.0
28/12:00pm 10.1 3.0 -1.6 44 4.8 W 26 37 14 20 1021.3 1023.0 0.0
28/11:30am 10.2 4.3 -0.9 46 4.6 WNW 20 30 11 16 1021.8 1023.5 0.0
28/11:00am 10.1 3.5 -0.4 48 4.4 W 24 33 13 18 1021.9 1023.6 0.0
28/10:30am 9.5 4.3 0.1 52 4.0 WNW 17 24 9 13 1021.9 1023.6 0.0
28/10:00am 7.9 2.6 -0.8 54 3.5 NW 17 26 9 14 1021.9 1023.6 0.0
28/09:30am 7.3 4.5 2.0 69 2.3 NE 6 11 3 6 1021.9 1023.6 0.0
28/09:00am 4.1 0.5 0.4 77 1.5 NE 9 11 5 6 1021.7 1023.4 0.2

Latest Capital City Observations: Canberra | Sydney | Melbourne | Brisbane | Adelaide | Perth | Hobart | Darwin

Other Formats:

Comma delimited format used in spreadsheet applications
http://www.bom.gov.au/fwo/IDN60903/IDN60903.94921.axf

JavaScript Object Notation format (JSON) in row-major order
http://www.bom.gov.au/fwo/IDN60903/IDN60903.94921.json